createdAt,value
2023-05-04T00:00:16.077Z,101946.78
2023-05-04T00:02:45.044Z,101951.19
2023-05-04T00:05:14.613Z,101933.75
2023-05-04T00:07:43.550Z,101934.69
2023-05-04T00:10:12.854Z,101946.94
2023-05-04T00:12:43.146Z,101949.59
2023-05-04T00:15:12.355Z,101946.13
2023-05-04T00:17:41.491Z,101929.50
2023-05-04T00:20:11.030Z,101932.19
2023-05-04T00:22:39.751Z,101859.63
2023-05-04T00:25:09.228Z,101908.63
2023-05-04T00:27:38.434Z,101945.31
2023-05-04T00:30:08.115Z,101934.81
2023-05-04T00:32:37.274Z,101947.06
2023-05-04T00:35:06.878Z,101842.22
2023-05-04T00:37:35.692Z,101910.34
2023-05-04T00:40:08.050Z,101933.88
2023-05-04T00:42:37.097Z,101918.16
2023-05-04T00:45:05.990Z,101916.38
2023-05-04T00:47:35.128Z,101899.75
2023-05-04T00:50:05.705Z,101955.59
2023-05-04T00:52:35.633Z,101924.06
2023-05-04T00:55:04.673Z,101907.44
2023-05-04T00:57:33.694Z,101910.91
2023-05-04T01:00:05.601Z,101928.22
2023-05-04T01:02:34.767Z,101943.88
2023-05-04T01:05:04.057Z,101956.88
2023-05-04T01:08:17.495Z,101947.09
2023-05-04T01:10:51.695Z,101943.41
2023-05-04T01:13:23.288Z,101861.91
2023-05-04T01:15:52.648Z,101930.66
2023-05-04T01:18:21.609Z,101954.06
2023-05-04T01:20:50.589Z,101948.56
2023-05-04T01:23:19.341Z,101930.84
2023-05-04T01:26:04.340Z,101950.47
2023-05-04T01:28:45.004Z,101939.53
2023-05-04T01:31:17.948Z,101940.09
2023-05-04T01:33:47.317Z,101928.03
2023-05-04T01:36:16.564Z,101900.31
2023-05-04T01:38:45.413Z,101928.25
2023-05-04T01:41:14.053Z,101934.47
2023-05-04T01:43:43.971Z,101928.16
2023-05-04T01:46:13.055Z,101922.66
2023-05-04T01:48:41.870Z,101933.44
2023-05-04T01:51:13.330Z,101932.03
2023-05-04T01:53:42.188Z,101922.81
2023-05-04T01:56:11.405Z,101912.09
2023-05-04T01:58:40.712Z,101907.66
2023-05-04T02:01:10.070Z,101924.50
2023-05-04T02:03:39.466Z,101917.31
2023-05-04T02:06:09.408Z,101908.50
2023-05-04T02:08:39.074Z,101904.38
2023-05-04T02:11:09.094Z,101926.97
2023-05-04T02:13:38.086Z,101890.06
2023-05-04T02:16:08.532Z,101844.66
2023-05-04T02:18:37.651Z,101910.16
2023-05-04T02:21:06.621Z,101888.88
2023-05-04T02:23:38.130Z,101895.47
2023-05-04T02:26:07.868Z,101899.16
2023-05-04T02:28:36.654Z,101901.41
2023-05-04T02:31:05.618Z,101898.78
2023-05-04T02:33:34.910Z,101892.94
2023-05-04T02:36:03.690Z,101888.78
2023-05-04T02:38:33.269Z,101875.59
2023-05-04T02:41:02.025Z,101862.81
2023-05-04T02:43:30.793Z,101820.19
2023-05-04T02:46:01.406Z,101886.41
2023-05-04T02:48:30.449Z,101877.59
2023-05-04T02:50:59.691Z,101884.84
2023-05-04T02:53:28.623Z,101888.50
2023-05-04T02:55:57.560Z,101887.03
2023-05-04T02:58:26.464Z,101873.88
2023-05-04T03:00:56.937Z,101874.72
2023-05-04T03:03:26.038Z,101880.44
2023-05-04T03:05:55.083Z,101799.06
2023-05-04T03:08:24.641Z,101850.91
2023-05-04T03:10:53.635Z,101856.34
2023-05-04T03:13:22.872Z,101803.59
2023-05-04T03:15:52.016Z,101851.72
2023-05-04T03:18:23.025Z,101871.97
2023-05-04T03:20:52.331Z,101861.66
2023-05-04T03:23:23.423Z,101844.31
2023-05-04T03:25:52.432Z,101868.50
2023-05-04T03:28:21.180Z,101848.31
2023-05-04T03:30:50.374Z,101857.84
2023-05-04T03:33:22.010Z,101833.06
2023-05-04T03:35:50.973Z,101834.06
2023-05-04T03:38:19.696Z,101849.41
2023-05-04T03:40:48.686Z,101838.78
2023-05-04T03:43:17.660Z,101826.41
2023-05-04T03:45:47.289Z,101841.78
2023-05-04T03:48:16.033Z,101837.63
2023-05-04T03:50:45.392Z,101841.13
2023-05-04T03:53:14.268Z,101837.00
2023-05-04T03:55:43.704Z,101826.28
2023-05-04T03:58:12.634Z,101790.69
2023-05-04T04:00:41.459Z,101836.34
2023-05-04T04:03:15.744Z,101840.31
2023-05-04T04:05:44.611Z,101829.69
2023-05-04T04:08:15.035Z,101838.88
2023-05-04T04:10:43.917Z,101832.19
2023-05-04T04:13:13.198Z,101832.34
2023-05-04T04:15:45.438Z,101796.94
2023-05-04T04:18:14.546Z,101790.97
2023-05-04T04:20:43.476Z,101827.16
2023-05-04T04:23:12.405Z,101764.31
2023-05-04T04:25:42.535Z,101796.56
2023-05-04T04:28:12.352Z,101793.50
2023-05-04T04:30:42.470Z,101791.88
2023-05-04T04:33:11.520Z,101814.19
2023-05-04T04:35:40.317Z,101802.84
2023-05-04T04:38:09.123Z,101803.91
2023-05-04T04:40:38.092Z,101791.00
2023-05-04T04:43:06.965Z,101788.63
2023-05-04T04:45:36.607Z,101786.81
2023-05-04T04:48:05.581Z,101792.97
2023-05-04T04:50:34.518Z,101806.84
2023-05-04T04:53:03.312Z,101770.09
2023-05-04T04:55:32.272Z,101767.59
2023-05-04T04:58:01.108Z,101777.97
2023-05-04T05:00:30.050Z,101797.25
2023-05-04T05:02:58.825Z,101774.22
2023-05-04T05:05:29.115Z,101777.00
2023-05-04T05:07:59.023Z,101763.25
2023-05-04T05:10:27.940Z,101759.31
2023-05-04T05:12:57.105Z,101711.78
2023-05-04T05:15:26.164Z,101748.41
2023-05-04T05:17:55.240Z,101754.06
2023-05-04T05:20:24.288Z,101765.44
2023-05-04T05:22:53.201Z,101699.22
2023-05-04T05:25:22.236Z,101729.44
2023-05-04T05:27:51.098Z,101751.00
2023-05-04T05:30:20.117Z,101766.31
2023-05-04T05:32:49.478Z,101732.84
2023-05-04T05:35:18.499Z,101749.53
2023-05-04T05:37:49.337Z,101738.56
2023-05-04T05:40:18.400Z,101740.34
2023-05-04T05:42:47.052Z,101749.34
2023-05-04T05:45:16.020Z,101689.53
2023-05-04T05:47:44.750Z,101731.25
2023-05-04T05:50:15.482Z,101723.66
2023-05-04T05:52:43.980Z,101725.75
2023-05-04T05:55:13.176Z,101726.53
2023-05-04T05:57:44.394Z,101724.69
2023-05-04T06:00:14.185Z,101704.97
2023-05-04T06:02:43.453Z,101714.53
2023-05-04T06:05:12.428Z,101712.66
2023-05-04T06:07:41.356Z,101708.25
2023-05-04T06:10:11.614Z,101703.81
2023-05-04T06:12:40.486Z,101692.03
2023-05-04T06:15:10.600Z,101686.53
2023-05-04T06:17:39.827Z,101673.78
2023-05-04T06:20:10.058Z,101668.81
2023-05-04T06:22:38.741Z,101681.38
2023-05-04T06:25:08.293Z,101690.72
2023-05-04T06:27:38.100Z,101669.78
2023-05-04T06:30:10.292Z,101661.84
2023-05-04T06:32:39.293Z,101661.22
2023-05-04T06:35:09.761Z,101661.78
2023-05-04T06:37:38.936Z,101662.81
2023-05-04T06:40:08.989Z,101665.72
2023-05-04T06:42:37.918Z,101652.47
2023-05-04T06:45:07.356Z,101645.94
2023-05-04T06:47:37.902Z,101657.41
2023-05-04T06:50:10.727Z,101630.84
2023-05-04T06:52:41.657Z,101623.44
2023-05-04T06:55:10.637Z,101634.16
2023-05-04T06:57:39.153Z,101653.59
2023-05-04T07:00:09.182Z,101631.69
2023-05-04T07:02:38.052Z,101637.25
2023-05-04T07:05:07.027Z,101647.13
2023-05-04T07:07:36.014Z,101632.34
2023-05-04T07:10:05.159Z,101642.41
2023-05-04T07:12:34.093Z,101632.66
2023-05-04T07:15:02.853Z,101615.44
2023-05-04T07:17:33.041Z,101627.53
2023-05-04T07:20:06.426Z,101636.13
2023-05-04T07:22:35.407Z,101616.47
2023-05-04T07:25:04.797Z,101590.47
2023-05-04T07:27:35.297Z,101612.31
2023-05-04T07:30:04.492Z,101611.63
2023-05-04T07:32:33.962Z,101573.03
2023-05-04T07:35:02.868Z,101598.03
2023-05-04T07:37:31.366Z,101582.50
2023-05-04T07:40:06.831Z,101569.81
2023-05-04T07:42:35.848Z,101598.72
2023-05-04T07:45:05.376Z,101606.72
2023-05-04T07:47:34.134Z,101586.19
2023-05-04T07:50:03.016Z,101570.66
2023-05-04T07:52:31.934Z,101592.47
2023-05-04T07:55:00.652Z,101591.03
2023-05-04T07:57:32.046Z,101558.97
2023-05-04T08:00:00.683Z,101566.66
2023-05-04T08:02:30.215Z,101515.50
2023-05-04T08:05:01.743Z,101580.19
2023-05-04T08:07:30.522Z,101566.09
2023-05-04T08:09:59.938Z,101568.50
2023-05-04T08:12:28.928Z,101571.94
2023-05-04T08:14:58.023Z,101546.66
2023-05-04T08:17:27.141Z,101553.63
2023-05-04T08:19:57.993Z,101544.22
2023-05-04T08:22:27.146Z,101556.84
2023-05-04T08:24:56.291Z,101543.13
2023-05-04T08:27:24.993Z,101547.41
2023-05-04T08:29:53.660Z,101549.66
2023-05-04T08:32:22.332Z,101554.56
2023-05-04T08:34:52.645Z,101533.16
2023-05-04T08:37:21.810Z,101535.16
2023-05-04T08:39:50.705Z,101496.69
2023-05-04T08:42:32.540Z,101526.56
2023-05-04T08:45:01.642Z,101534.59
2023-05-04T08:47:30.655Z,101510.06
2023-05-04T08:49:59.300Z,101515.22
2023-05-04T08:52:29.360Z,101472.66
2023-05-04T08:54:59.657Z,101522.03
2023-05-04T08:57:28.839Z,101517.03
2023-05-04T09:00:00.180Z,101524.69
2023-05-04T09:02:30.411Z,101501.13
2023-05-04T09:04:59.621Z,101523.41
2023-05-04T09:07:28.908Z,101504.84
2023-05-04T09:09:58.797Z,101512.13
2023-05-04T09:12:28.464Z,101506.56
2023-05-04T09:14:58.089Z,101496.97
2023-05-04T09:17:28.464Z,101521.78
2023-05-04T09:20:04.618Z,101507.06
2023-05-04T09:22:34.352Z,101481.03
2023-05-04T09:25:21.154Z,101505.53
2023-05-04T09:27:57.753Z,101480.59
2023-05-04T09:30:27.510Z,101499.41
2023-05-04T09:32:56.589Z,101474.19
2023-05-04T09:35:33.505Z,101475.75
2023-05-04T09:38:03.292Z,101436.44
2023-05-04T09:40:33.544Z,101463.63
2023-05-04T09:43:02.907Z,101423.34
2023-05-04T09:45:48.242Z,101474.97
2023-05-04T09:48:21.136Z,101479.91
2023-05-04T09:50:57.384Z,101455.25
2023-05-04T09:53:31.417Z,101444.69
2023-05-04T09:56:08.099Z,101473.28
2023-05-04T09:58:37.733Z,101444.41
2023-05-04T10:01:07.359Z,101444.22
2023-05-04T10:03:36.354Z,101467.44
2023-05-04T10:06:06.817Z,101439.28
2023-05-04T10:08:36.942Z,101452.38
2023-05-04T10:11:06.412Z,101403.44
2023-05-04T10:13:35.414Z,101428.84
2023-05-04T10:16:28.004Z,101435.50
2023-05-04T10:19:09.999Z,101449.00
2023-05-04T10:21:44.842Z,101442.34
2023-05-04T10:24:54.228Z,101442.81
2023-05-04T10:27:48.317Z,101433.50
2023-05-04T10:30:22.108Z,101426.13
2023-05-04T10:33:00.212Z,101372.94
2023-05-04T10:35:29.116Z,101405.06
2023-05-04T10:37:58.128Z,101434.00
2023-05-04T10:40:37.350Z,101409.34
2023-05-04T10:43:07.696Z,101414.44
2023-05-04T10:45:43.513Z,101415.31
2023-05-04T10:48:12.540Z,101393.38
2023-05-04T10:50:47.360Z,101420.47
2023-05-04T10:53:20.048Z,101390.72
2023-05-04T10:55:49.790Z,101394.31
2023-05-04T10:58:29.479Z,101386.63
2023-05-04T11:00:58.412Z,101392.59
2023-05-04T11:03:28.891Z,101388.09
2023-05-04T11:05:57.763Z,101380.97
2023-05-04T11:08:27.779Z,101394.06
2023-05-04T11:11:05.318Z,101392.09
2023-05-04T11:13:42.476Z,101397.91
2023-05-04T11:16:13.346Z,101356.38
2023-05-04T11:18:42.192Z,101377.84
2023-05-04T11:21:11.012Z,101387.78
2023-05-04T11:23:40.459Z,101374.69
2023-05-04T11:26:09.840Z,101380.97
2023-05-04T11:28:39.559Z,101364.72
2023-05-04T11:31:29.332Z,101367.59
2023-05-04T11:33:58.134Z,101381.25
2023-05-04T11:36:30.009Z,101356.38
2023-05-04T11:38:59.348Z,101370.91
2023-05-04T11:41:30.366Z,101367.63
2023-05-04T11:44:01.241Z,101374.03
2023-05-04T11:46:30.994Z,101362.22
2023-05-04T11:49:00.822Z,101346.84
2023-05-04T11:51:30.459Z,101348.56
2023-05-04T11:54:01.827Z,101346.56
2023-05-04T11:56:30.501Z,101362.81
2023-05-04T11:59:10.075Z,101361.09
2023-05-04T12:01:41.053Z,101354.81
2023-05-04T12:04:09.814Z,101332.91
2023-05-04T12:06:39.645Z,101344.72
2023-05-04T12:09:08.544Z,101328.03
2023-05-04T12:11:39.039Z,101343.28
2023-05-04T12:14:17.996Z,101330.91
2023-05-04T12:17:04.546Z,101319.81
2023-05-04T12:19:33.381Z,101329.19
2023-05-04T12:22:02.965Z,101326.06
2023-05-04T12:24:31.806Z,101339.72
2023-05-04T12:27:02.741Z,101311.31
2023-05-04T12:29:31.912Z,101323.81
2023-05-04T12:32:00.562Z,101325.81
2023-05-04T12:34:31.931Z,101338.34
2023-05-04T12:37:00.602Z,101265.28
2023-05-04T12:39:30.711Z,101323.28
2023-05-04T12:42:00.419Z,101319.88
2023-05-04T12:44:29.591Z,101266.94
2023-05-04T12:46:58.399Z,101310.78
2023-05-04T12:49:27.166Z,101291.84
2023-05-04T12:51:55.849Z,101300.69
2023-05-04T12:54:24.566Z,101308.50
2023-05-04T12:56:54.199Z,101298.25
2023-05-04T12:59:26.846Z,101317.75
2023-05-04T13:01:55.896Z,101287.00
2023-05-04T13:04:24.731Z,101311.75
2023-05-04T13:06:53.636Z,101302.06
2023-05-04T13:09:22.475Z,101295.97
2023-05-04T13:11:51.311Z,101284.28
2023-05-04T13:14:20.183Z,101288.25
2023-05-04T13:16:52.332Z,101281.28
2023-05-04T13:19:20.921Z,101310.13
2023-05-04T13:21:49.604Z,101286.50
2023-05-04T13:24:18.420Z,101303.31
2023-05-04T13:26:49.588Z,101306.72
2023-05-04T13:29:18.425Z,101291.03
2023-05-04T13:31:47.111Z,101299.84
2023-05-04T13:34:15.850Z,101292.56
2023-05-04T13:36:44.434Z,101281.66
2023-05-04T13:39:13.312Z,101278.06
2023-05-04T13:41:41.968Z,101232.88
2023-05-04T13:44:10.735Z,101297.03
2023-05-04T13:46:39.612Z,101287.19
2023-05-04T13:49:08.744Z,101270.88
2023-05-04T13:51:38.878Z,101267.28
2023-05-04T13:54:07.696Z,101286.53
2023-05-04T13:56:36.475Z,101267.22
2023-05-04T13:59:05.369Z,101291.47
2023-05-04T14:01:34.562Z,101294.44
2023-05-04T14:04:03.459Z,101290.72
2023-05-04T14:06:32.370Z,101281.59
2023-05-04T14:09:01.357Z,101275.72
2023-05-04T14:11:30.371Z,101297.78
2023-05-04T14:13:59.372Z,101302.31
2023-05-04T14:16:28.653Z,101286.16
2023-05-04T14:18:57.890Z,101303.75
2023-05-04T14:21:26.904Z,101298.50
2023-05-04T14:23:55.605Z,101221.06
2023-05-04T14:26:24.528Z,101270.28
2023-05-04T14:28:53.600Z,101282.84
2023-05-04T14:31:22.458Z,101275.56
2023-05-04T14:33:51.242Z,101276.72
2023-05-04T14:36:20.553Z,101277.00
2023-05-04T14:38:51.937Z,101295.81
2023-05-04T14:41:21.334Z,101301.13
2023-05-04T14:43:50.388Z,101281.63
2023-05-04T14:46:19.620Z,101302.47
2023-05-04T14:48:49.255Z,101310.44
2023-05-04T14:51:30.746Z,101314.94
2023-05-04T14:54:00.531Z,101299.72
2023-05-04T14:56:29.577Z,101314.19
2023-05-04T14:58:58.532Z,101305.34
2023-05-04T15:01:27.540Z,101306.84
2023-05-04T15:03:57.256Z,101309.47
2023-05-04T15:06:27.941Z,101330.06
2023-05-04T15:08:57.013Z,101321.34
2023-05-04T15:11:26.672Z,101314.22
2023-05-04T15:13:58.776Z,101323.81
2023-05-04T15:16:33.525Z,101308.19
2023-05-04T15:19:03.022Z,101312.44
2023-05-04T15:21:32.620Z,101326.97
2023-05-04T15:24:01.595Z,101318.16
2023-05-04T15:26:31.695Z,101310.94
2023-05-04T15:29:00.379Z,101323.53
2023-05-04T15:31:29.219Z,101327.72
2023-05-04T15:33:57.993Z,101226.91
2023-05-04T15:36:27.924Z,101292.75
2023-05-04T15:38:56.908Z,101315.28
2023-05-04T15:41:25.597Z,101260.03
2023-05-04T15:43:54.856Z,101260.56
2023-05-04T15:46:23.817Z,101317.53
2023-05-04T15:48:52.464Z,101320.09
2023-05-04T15:51:21.964Z,101315.53
2023-05-04T15:53:50.834Z,101308.94
2023-05-04T15:56:19.978Z,101328.13
2023-05-04T15:58:48.956Z,101329.34
2023-05-04T16:01:18.497Z,101313.63
2023-05-04T16:03:48.322Z,101287.84
2023-05-04T16:06:18.245Z,101319.00
2023-05-04T16:08:47.164Z,101320.38
2023-05-04T16:11:17.036Z,101268.41
2023-05-04T16:13:48.419Z,101301.78
2023-05-04T16:16:17.692Z,101335.34
2023-05-04T16:18:46.586Z,101323.66
2023-05-04T16:21:15.964Z,101327.94
2023-05-04T16:23:47.612Z,101316.66
2023-05-04T16:26:16.525Z,101312.56
2023-05-04T16:28:46.148Z,101313.66
2023-05-04T16:31:18.528Z,101320.88
2023-05-04T16:33:48.719Z,101318.97
2023-05-04T16:36:17.548Z,101343.69
2023-05-04T16:38:50.129Z,101298.13
2023-05-04T16:41:19.588Z,101333.09
2023-05-04T16:43:49.866Z,101306.47
2023-05-04T16:46:19.455Z,101319.81
2023-05-04T16:48:48.286Z,101294.28
2023-05-04T16:51:17.149Z,101318.53
2023-05-04T16:53:46.388Z,101311.19
2023-05-04T16:56:19.876Z,101239.28
2023-05-04T16:58:48.710Z,101324.59
2023-05-04T17:01:18.199Z,101303.16
2023-05-04T17:03:47.236Z,101311.22
2023-05-04T17:06:17.736Z,101198.44
2023-05-04T17:08:46.860Z,101287.81
2023-05-04T17:11:15.829Z,101245.06
2023-05-04T17:13:45.331Z,101303.63
2023-05-04T17:16:14.068Z,101313.25
2023-05-04T17:18:42.935Z,101302.38
2023-05-04T17:21:11.583Z,101315.53
2023-05-04T17:23:40.406Z,101323.44
2023-05-04T17:26:10.647Z,101293.50
2023-05-04T17:28:39.678Z,101306.78
2023-05-04T17:31:13.507Z,101308.19
2023-05-04T17:33:42.733Z,101308.56
2023-05-04T17:36:12.749Z,101307.78
2023-05-04T17:38:42.371Z,101309.81
2023-05-04T17:41:11.527Z,101298.63
2023-05-04T17:43:40.630Z,101313.72
2023-05-04T17:46:09.351Z,101319.75
2023-05-04T17:48:38.953Z,101314.81
2023-05-04T17:51:11.108Z,101294.13
2023-05-04T17:53:39.859Z,101305.84
2023-05-04T17:56:08.926Z,101301.41
2023-05-04T17:58:38.445Z,101313.59
2023-05-04T18:01:07.750Z,101297.41
2023-05-04T18:03:37.144Z,101300.06
2023-05-04T18:06:07.248Z,101294.41
2023-05-04T18:08:36.064Z,101281.63
2023-05-04T18:11:05.069Z,101287.94
2023-05-04T18:13:33.996Z,101283.03
2023-05-04T18:16:02.867Z,101322.25
2023-05-04T18:18:31.892Z,101242.13
2023-05-04T18:21:01.562Z,101293.19
2023-05-04T18:23:30.900Z,101314.13
2023-05-04T18:25:59.706Z,101309.41
2023-05-04T18:28:29.324Z,101245.06
2023-05-04T18:31:00.777Z,101304.53
2023-05-04T18:33:30.212Z,101242.75
2023-05-04T18:36:01.766Z,101302.16
2023-05-04T18:38:30.630Z,101319.69
2023-05-04T18:41:00.661Z,101297.25
2023-05-04T18:43:29.619Z,101236.06
2023-05-04T18:45:58.502Z,101308.06
2023-05-04T18:48:27.858Z,101320.81
2023-05-04T18:50:57.976Z,101301.84
2023-05-04T18:53:27.538Z,101322.84
2023-05-04T18:56:07.526Z,101292.72
2023-05-04T18:58:40.274Z,101238.69
2023-05-04T19:01:09.545Z,101316.69
2023-05-04T19:03:38.982Z,101317.91
2023-05-04T19:06:08.588Z,101287.97
2023-05-04T19:08:37.417Z,101234.94
2023-05-04T19:11:06.257Z,101307.03
2023-05-04T19:13:35.559Z,101319.78
2023-05-04T19:16:04.786Z,101319.78
2023-05-04T19:18:35.248Z,101322.75
2023-05-04T19:21:07.220Z,101244.56
2023-05-04T19:23:36.627Z,101302.56
2023-05-04T19:26:06.717Z,101302.78
2023-05-04T19:28:35.650Z,101322.91
2023-05-04T19:31:04.811Z,101313.66
2023-05-04T19:33:47.199Z,101292.97
2023-05-04T19:36:17.778Z,101301.75
2023-05-04T19:38:46.728Z,101294.75
2023-05-04T19:41:15.629Z,101296.00
2023-05-04T19:43:44.646Z,101294.41
2023-05-04T19:46:13.621Z,101308.47
2023-05-04T19:48:42.678Z,101231.78
2023-05-04T19:51:11.426Z,101232.03
2023-05-04T19:53:43.252Z,101229.53
2023-05-04T19:56:12.686Z,101297.09
2023-05-04T19:58:41.608Z,101289.50
2023-05-04T20:01:11.408Z,101290.66
2023-05-04T20:03:43.070Z,101308.03
2023-05-04T20:06:12.952Z,101301.09
2023-05-04T20:08:41.989Z,101301.91
2023-05-04T20:11:10.616Z,101217.97
2023-05-04T20:13:39.412Z,101300.59
2023-05-04T20:16:08.190Z,101265.66
2023-05-04T20:18:37.067Z,101298.53
2023-05-04T20:21:06.102Z,101298.22
2023-05-04T20:23:34.865Z,101281.59
2023-05-04T20:26:05.878Z,101262.22
2023-05-04T20:28:34.969Z,101281.31
2023-05-04T20:31:04.008Z,101270.88
2023-05-04T20:33:33.182Z,101293.09
2023-05-04T20:36:01.962Z,101267.91
2023-05-04T20:38:30.731Z,101278.81
2023-05-04T20:41:09.761Z,101290.75
2023-05-04T20:43:38.752Z,101213.91
2023-05-04T20:46:08.750Z,101273.31
2023-05-04T20:48:37.838Z,101283.47
2023-05-04T20:51:14.383Z,101293.00
2023-05-04T20:53:44.102Z,101210.88
2023-05-04T20:56:12.972Z,101298.03
2023-05-04T20:58:42.460Z,101265.91
2023-05-04T21:01:11.440Z,101300.38
2023-05-04T21:03:40.265Z,101303.16
2023-05-04T21:06:09.188Z,101272.69
2023-05-04T21:08:38.101Z,101263.09
2023-05-04T21:11:07.499Z,101273.44
2023-05-04T21:13:36.415Z,101262.03
2023-05-04T21:16:05.666Z,101283.28
2023-05-04T21:18:35.479Z,101297.06
2023-05-04T21:21:07.445Z,101291.75
2023-05-04T21:23:36.154Z,101311.84
2023-05-04T21:26:05.696Z,101329.59
2023-05-04T21:28:34.767Z,101315.50
2023-05-04T21:31:07.964Z,101300.00
2023-05-04T21:33:37.081Z,101291.69
2023-05-04T21:36:16.059Z,101283.06
2023-05-04T21:38:44.822Z,101299.91
2023-05-04T21:41:14.777Z,101308.59
2023-05-04T21:43:44.459Z,101298.69
2023-05-04T21:46:13.500Z,101302.53
2023-05-04T21:48:42.547Z,101297.47
2023-05-04T21:51:11.631Z,101235.53
2023-05-04T21:53:40.332Z,101280.66
2023-05-04T21:56:10.102Z,101310.97
2023-05-04T21:58:41.104Z,101305.31
2023-05-04T22:01:10.644Z,101288.34
2023-05-04T22:03:39.579Z,101299.06
2023-05-04T22:06:08.522Z,101313.97
2023-05-04T22:08:37.472Z,101253.88
2023-05-04T22:11:07.204Z,101321.53
2023-05-04T22:13:36.240Z,101303.41
2023-05-04T22:16:05.448Z,101298.50
2023-05-04T22:18:34.202Z,101328.09
2023-05-04T22:21:03.088Z,101119.53
2023-05-04T22:23:32.086Z,101311.03
2023-05-04T22:26:01.052Z,101327.75
2023-05-04T22:28:29.969Z,101323.38
2023-05-04T22:31:00.348Z,101326.13
2023-05-04T22:33:29.742Z,101335.91
2023-05-04T22:35:58.568Z,101291.75
2023-05-04T22:38:27.875Z,101294.38
2023-05-04T22:40:56.671Z,101311.72
2023-05-04T22:43:25.569Z,101302.38
2023-05-04T22:45:54.480Z,101290.56
2023-05-04T22:48:26.364Z,101334.31
2023-05-04T22:50:55.917Z,101321.53
2023-05-04T22:53:25.458Z,101335.56
2023-05-04T22:55:54.598Z,101322.03
2023-05-04T22:58:25.630Z,101253.81
2023-05-04T23:00:54.582Z,101311.97
2023-05-04T23:03:26.076Z,101345.78
2023-05-04T23:05:55.119Z,101308.56
2023-05-04T23:08:27.284Z,101325.19
2023-05-04T23:10:56.193Z,101347.88
2023-05-04T23:13:25.192Z,101330.38
2023-05-04T23:15:53.978Z,101353.22
2023-05-04T23:18:23.008Z,101350.88
2023-05-04T23:20:52.205Z,101310.94
2023-05-04T23:23:21.371Z,101341.31
2023-05-04T23:25:50.212Z,101347.31
2023-05-04T23:28:18.968Z,101332.53
2023-05-04T23:30:47.809Z,101272.91
2023-05-04T23:33:16.770Z,101354.16
2023-05-04T23:35:45.692Z,101319.56
2023-05-04T23:38:14.588Z,101322.88
2023-05-04T23:40:43.344Z,101331.78
2023-05-04T23:43:12.369Z,101331.19
2023-05-04T23:45:41.268Z,101337.13
2023-05-04T23:48:10.433Z,101323.34
2023-05-04T23:50:39.704Z,101341.41
2023-05-04T23:53:08.427Z,101338.75
2023-05-04T23:55:37.360Z,101355.16
2023-05-04T23:58:06.018Z,101328.94
